< Typhoon 198602 1986 Season Typhoon 198604 >
Typhoon 198603 (LOLA)
General InformationTrack Information on Google MapsDetailed Wind InformationList of All Images || Disaster Info.ResourceGoogle EarthGE AnimationAtom FeedGeoJSON
Detalied Best Track (Time Zone = UTC)
Year Month Day Hour Lat. Long. Pressure (hPa) Wind (kt) Class Image Chart
1986 5 16 00 7.0 157.0 1002 0 2 Image Chart
1986 5 16 06 7.1 157.8 1000 0 2 Image Chart
1986 5 16 12 7.2 158.5 996 0 2 Image Chart
1986 5 16 18 7.3 159.2 992 40 3 Image Chart
1986 5 17 00 7.6 159.6 990 40 3 Image Chart
1986 5 17 06 7.9 159.6 985 40 3 Image Chart
1986 5 17 12 8.0 159.4 985 45 3 Image Chart
1986 5 17 18 8.1 159.1 980 50 4 Image Chart
1986 5 18 00 8.3 158.8 975 60 4 Image Chart
1986 5 18 06 8.7 158.9 970 75 5 Image Chart
1986 5 18 12 9.2 158.8 960 75 5 Image Chart
1986 5 18 18 9.7 158.5 950 80 5 Image Chart
1986 5 19 00 10.4 157.9 935 80 5 Image Chart
1986 5 19 06 11.0 157.0 915 120 5 Image Chart
1986 5 19 12 11.6 156.2 910 120 5 Image Chart
1986 5 19 18 12.4 155.2 910 120 5 Image Chart
1986 5 20 00 13.3 154.2 910 120 5 Image Chart
1986 5 20 06 14.3 153.1 915 120 5 Image Chart
1986 5 20 12 15.1 152.1 915 120 5 Image Chart
1986 5 20 18 16.2 151.3 920 120 5 Image Chart
1986 5 21 00 17.5 150.8 920 100 5 Image Chart
1986 5 21 06 19.0 150.4 925 100 5 Image Chart
1986 5 21 12 20.5 150.1 930 100 5 Image Chart
1986 5 21 18 22.0 150.3 935 90 5 Image Chart
1986 5 22 00 23.8 150.8 945 75 5 Image Chart
1986 5 22 06 26.0 152.1 950 75 5 Image Chart
1986 5 22 12 28.2 153.7 960 70 5 Image Chart
1986 5 22 18 30.5 156.5 970 60 4 Image Chart
1986 5 23 00 33.0 160.0 975 60 4 Image Chart
1986 5 23 06 35.5 163.5 980 60 4 Image Chart
1986 5 23 12 37.5 165.5 985 55 4 Image Chart
1986 5 23 18 40.0 167.0 985 55 4 Image Chart
1986 5 24 00 42.0 168.0 990 0 6 Image Chart
1986 5 24 06 43.5 170.0 990 0 6 Image Chart
1986 5 24 12 45.0 172.0 990 0 6 Image Chart
1986 5 24 18 47.5 174.5 992 0 6 Image Chart
1986 5 25 00 48.0 177.0 992 0 6 Image Chart
1986 5 25 06 49.0 180.0 992 0 6 Image Chart
Japan Meteorological Agency Best Track Data | Correction Date : 1992-10-21
< Typhoon 198602 1986 Season Typhoon 198604 >

Help